Terminal Aerodrome Forecast
Issued by NWS Grand Forks, ND

Home | Current Version | Previous Version | Text Only | Print | Product List | Glossary Off
Versions: 1 2 3 4 5 6 7 8 9 10 11 12 13 14 15 16 17 18 19 20 21 22 23

000
FTUS43 KFGF 180500
TAFGFK
TAF
KGFK 180520Z 1806/1906 VRB06KT P6SM -TSRA BKN035CB
     FM180700 VRB06KT P6SM OVC012
     FM180900 VRB05KT 6SM BR OVC008
      TEMPO 1809/1813 3SM BR OVC004
     FM181600 30008KT P6SM BKN025
     FM181900 33010KT P6SM VCTS BKN035CB=

USA.gov is the U.S. government's official web portal to all federal, state and local government web resources and services.